Nilopolis, Brazil
Current Conditions -  °F | °C
As of 8:00 AM on Friday 19 Dec 2014 (Local Time) from SBAF Reporting Station
Broken Clouds Broken Clouds  
Wind Chill: 79°   Ceiling: 9000
Heat Index: 81°   Visibility: 6mi
Dew Point: 68°   Wind: 2mph
Humidity: 69%   Direction: 220°SW
Pressure: 29.83"   Gusts: NA
Location:  22.8°S, 43.42°W
Report Text: SBAF 191000Z 22002KT 9999 FEW020 BKN090 26/20 Q1010
Loading
Personal Weather Stations






























Interactive Weather Map New forecast layout! Learn more

10-Day Weather Forecast

Advertisements
Track Severe Weather on mobile